Terminal Aerodrome Forecast
Issued by NWS

Home | Current Version | Previous Version | Text Only | Print | Product List | Glossary Off
Versions: 1 2 3 4 5 6 7 8 9 10 11 12 13 14 15 16 17 18 19 20 21

000
FTUS43 KMPX 222300
TAFRWF
TAF
KRWF 222333Z 2300/2324 16012KT 3SM BR OVC006
      TEMPO 2300/2304 5SM BR SCT007
     FM230600 19008KT 3SM BR OVC005
     FM231200 26007KT 4SM BR SCT005 OVC050
     FM231600 31009KT P6SM BKN120=

USA.gov is the U.S. government's official web portal to all federal, state and local government web resources and services.